createdAt,value
2019-01-18T00:00:12.839Z,97957.00
2019-01-18T00:02:40.348Z,97960.00
2019-01-18T00:05:07.882Z,97953.00
2019-01-18T00:07:35.238Z,97962.00
2019-01-18T00:10:08.247Z,97975.00
2019-01-18T00:12:35.639Z,97977.00
2019-01-18T00:15:08.038Z,97981.00
2019-01-18T00:17:35.397Z,97971.00
2019-01-18T00:20:07.927Z,97975.00
2019-01-18T00:22:35.277Z,97979.00
2019-01-18T00:25:04.667Z,97982.00
2019-01-18T00:27:32.309Z,97986.00
2019-01-18T00:29:59.617Z,97987.00
2019-01-18T00:32:27.007Z,97991.00
2019-01-18T00:34:54.467Z,98000.00
2019-01-18T00:37:22.214Z,98002.00
2019-01-18T00:39:49.558Z,98004.00
2019-01-18T00:42:16.919Z,98010.00
2019-01-18T00:44:44.167Z,98003.00
2019-01-18T00:47:11.577Z,98010.00
2019-01-18T00:49:39.157Z,98011.00
2019-01-18T00:52:06.771Z,98018.00
2019-01-18T00:54:34.669Z,98025.00
2019-01-18T00:57:01.978Z,98011.00
2019-01-18T00:59:29.227Z,98027.00
2019-01-18T01:01:56.737Z,98028.00
2019-01-18T01:04:24.477Z,98039.00
2019-01-18T01:06:51.908Z,98042.00
2019-01-18T01:09:19.118Z,98054.00
2019-01-18T01:11:46.677Z,98048.00
2019-01-18T01:14:13.987Z,98054.00
2019-01-18T01:16:41.467Z,98053.00
2019-01-18T01:19:08.789Z,98055.00
2019-01-18T01:21:36.367Z,98058.00
2019-01-18T01:24:03.958Z,98068.00
2019-01-18T01:26:31.849Z,98071.00
2019-01-18T01:28:59.078Z,98069.00
2019-01-18T01:31:26.608Z,98072.00
2019-01-18T01:33:54.540Z,98074.00
2019-01-18T01:36:21.898Z,98050.00
2019-01-18T01:38:49.497Z,98059.00
2019-01-18T01:41:16.928Z,98053.00
2019-01-18T01:43:44.707Z,98052.00
2019-01-18T01:46:12.096Z,98052.00
2019-01-18T01:48:39.310Z,98062.00
2019-01-18T01:51:06.746Z,98058.00
2019-01-18T01:53:34.121Z,98062.00
2019-01-18T01:56:03.079Z,98065.00
2019-01-18T01:58:30.778Z,98071.00
2019-01-18T02:00:58.197Z,98067.00
2019-01-18T02:03:25.757Z,98077.00
2019-01-18T02:05:53.127Z,98064.00
2019-01-18T02:08:20.647Z,98061.00
2019-01-18T02:10:47.998Z,98063.00
2019-01-18T02:13:15.207Z,98061.00
2019-01-18T02:15:42.549Z,98058.00
2019-01-18T02:18:10.307Z,98069.00
2019-01-18T02:20:37.627Z,98065.00
2019-01-18T02:23:05.257Z,98069.00
2019-01-18T02:25:32.997Z,98074.00
2019-01-18T02:28:00.227Z,98077.00
2019-01-18T02:30:28.472Z,98070.00
2019-01-18T02:32:56.121Z,98081.00
2019-01-18T02:35:23.827Z,98087.00
2019-01-18T02:37:51.278Z,98085.00
2019-01-18T02:40:18.958Z,98089.00
2019-01-18T02:42:46.582Z,98081.00
2019-01-18T02:45:21.141Z,98088.00
2019-01-18T02:47:48.687Z,98079.00
2019-01-18T02:50:16.618Z,98078.00
2019-01-18T02:52:44.221Z,98078.00
2019-01-18T02:55:12.278Z,98080.00
2019-01-18T02:57:39.909Z,98083.00
2019-01-18T03:00:15.482Z,98082.00
2019-01-18T03:02:43.007Z,98079.00
2019-01-18T03:05:13.269Z,98079.00
2019-01-18T03:07:40.993Z,98098.00
2019-01-18T03:10:18.930Z,98092.00
2019-01-18T03:12:46.498Z,98095.00
2019-01-18T03:15:13.971Z,98096.00
2019-01-18T03:17:42.237Z,98094.00
2019-01-18T03:20:13.910Z,98089.00
2019-01-18T03:22:41.593Z,98088.00
2019-01-18T03:25:13.629Z,98083.00
2019-01-18T03:27:41.149Z,98097.00
2019-01-18T03:30:19.185Z,98084.00
2019-01-18T03:32:43.643Z,98094.00
2019-01-18T03:35:13.851Z,98094.00
2019-01-18T03:37:41.770Z,98087.00
2019-01-18T03:40:14.309Z,98086.00
2019-01-18T03:42:42.558Z,98085.00
2019-01-18T03:45:15.759Z,98087.00
2019-01-18T03:47:43.959Z,98077.00
2019-01-18T03:50:15.717Z,98083.00
2019-01-18T03:52:44.360Z,98078.00
2019-01-18T03:55:12.924Z,98077.00
2019-01-18T03:57:40.881Z,98079.00
2019-01-18T04:00:15.848Z,98083.00
2019-01-18T04:02:43.448Z,98083.00
2019-01-18T04:05:17.177Z,98097.00
2019-01-18T04:07:44.517Z,98091.00
2019-01-18T04:10:16.050Z,98098.00
2019-01-18T04:12:43.507Z,98099.00
2019-01-18T04:15:21.047Z,98108.00
2019-01-18T04:17:48.658Z,98113.00
2019-01-18T04:20:18.240Z,98120.00
2019-01-18T04:22:45.586Z,98118.00
2019-01-18T04:25:15.336Z,98125.00
2019-01-18T04:27:42.819Z,98121.00
2019-01-18T04:30:14.178Z,98128.00
2019-01-18T04:32:41.687Z,98135.00
2019-01-18T04:35:11.083Z,98137.00
2019-01-18T04:37:38.796Z,98138.00
2019-01-18T04:40:18.929Z,98140.00
2019-01-18T04:42:46.318Z,98156.00
2019-01-18T04:45:13.787Z,98154.00
2019-01-18T04:47:41.417Z,98156.00
2019-01-18T04:50:15.977Z,98159.00
2019-01-18T04:52:44.447Z,98169.00
2019-01-18T04:55:12.559Z,98182.00
2019-01-18T04:57:39.938Z,98206.00
2019-01-18T05:00:15.577Z,98213.00
2019-01-18T05:02:42.927Z,98210.00
2019-01-18T05:05:10.417Z,98212.00
2019-01-18T05:07:37.957Z,98211.00
2019-01-18T05:10:13.216Z,98217.00
2019-01-18T05:12:40.729Z,98212.00
2019-01-18T05:15:12.978Z,98206.00
2019-01-18T05:17:40.878Z,98216.00
2019-01-18T05:20:10.707Z,98221.00
2019-01-18T05:22:38.137Z,98233.00
2019-01-18T05:25:12.002Z,98249.00
2019-01-18T05:27:39.968Z,98246.00
2019-01-18T05:30:15.287Z,98254.00
2019-01-18T05:32:42.781Z,98259.00
2019-01-18T05:35:10.860Z,98265.00
2019-01-18T05:37:38.097Z,98269.00
2019-01-18T05:40:18.477Z,98281.00
2019-01-18T05:42:45.980Z,98290.00
2019-01-18T05:45:19.957Z,98298.00
2019-01-18T05:47:47.527Z,98313.00
2019-01-18T05:50:26.762Z,98312.00
2019-01-18T05:52:54.267Z,98329.00
2019-01-18T05:55:22.038Z,98328.00
2019-01-18T05:57:49.655Z,98327.00
2019-01-18T06:00:31.858Z,98325.00
2019-01-18T06:02:59.252Z,98334.00
2019-01-18T06:05:28.429Z,98333.00
2019-01-18T06:07:56.257Z,98344.00
2019-01-18T06:10:23.631Z,98357.00
2019-01-18T06:12:50.700Z,98360.00
2019-01-18T06:15:18.451Z,98363.00
2019-01-18T06:17:46.159Z,98370.00
2019-01-18T06:20:16.292Z,98386.00
2019-01-18T06:22:44.150Z,98397.00
2019-01-18T06:25:11.673Z,98396.00
2019-01-18T06:27:39.120Z,98403.00
2019-01-18T06:30:18.147Z,98409.00
2019-01-18T06:32:45.658Z,98408.00
2019-01-18T06:35:13.827Z,98421.00
2019-01-18T06:37:41.237Z,98429.00
2019-01-18T06:40:20.408Z,98424.00
2019-01-18T06:42:48.338Z,98437.00
2019-01-18T06:45:19.719Z,98435.00
2019-01-18T06:47:47.217Z,98437.00
2019-01-18T06:50:17.937Z,98446.00
2019-01-18T06:52:50.499Z,98445.00
2019-01-18T06:55:18.539Z,98457.00
2019-01-18T06:57:46.418Z,98452.00
2019-01-18T07:00:23.937Z,98461.00
2019-01-18T07:02:51.478Z,98463.00
2019-01-18T07:05:18.789Z,98463.00
2019-01-18T07:07:46.708Z,98471.00
2019-01-18T07:10:20.913Z,98471.00
2019-01-18T07:12:46.990Z,98477.00
2019-01-18T07:15:15.437Z,98478.00
2019-01-18T07:17:42.970Z,98474.00
2019-01-18T07:20:19.297Z,98472.00
2019-01-18T07:22:46.738Z,98471.00
2019-01-18T07:25:18.909Z,98477.00
2019-01-18T07:27:46.418Z,98478.00
2019-01-18T07:30:24.377Z,98495.00
2019-01-18T07:32:51.610Z,98510.00
2019-01-18T07:35:19.218Z,98503.00
2019-01-18T07:37:46.718Z,98521.00
2019-01-18T07:40:14.458Z,98517.00
2019-01-18T07:42:42.090Z,98530.00
2019-01-18T07:45:17.310Z,98539.00
2019-01-18T07:47:44.548Z,98538.00
2019-01-18T07:50:12.737Z,98545.00
2019-01-18T07:52:41.099Z,98555.00
2019-01-18T07:55:09.580Z,98553.00
2019-01-18T07:57:36.959Z,98561.00
2019-01-18T08:00:21.058Z,98568.00
2019-01-18T08:02:48.388Z,98569.00
2019-01-18T08:05:16.027Z,98578.00
2019-01-18T08:07:43.760Z,98583.00
2019-01-18T08:10:21.037Z,98584.00
2019-01-18T08:12:48.597Z,98592.00
2019-01-18T08:15:19.177Z,98591.00
2019-01-18T08:17:46.727Z,98601.00
2019-01-18T08:20:17.716Z,98598.00
2019-01-18T08:22:45.468Z,98609.00
2019-01-18T08:25:14.767Z,98617.00
2019-01-18T08:27:42.569Z,98605.00
2019-01-18T08:30:17.317Z,98624.00
2019-01-18T08:32:44.755Z,98625.00
2019-01-18T08:35:15.882Z,98626.00
2019-01-18T08:37:43.357Z,98632.00
2019-01-18T08:40:20.667Z,98637.00
2019-01-18T08:42:47.977Z,98637.00
2019-01-18T08:45:29.409Z,98637.00
2019-01-18T08:47:56.858Z,98640.00
2019-01-18T08:50:25.013Z,98637.00
2019-01-18T08:52:52.917Z,98635.00
2019-01-18T08:55:20.248Z,98646.00
2019-01-18T08:57:47.590Z,98652.00
2019-01-18T09:00:25.367Z,98650.00
2019-01-18T09:02:52.607Z,98671.00
2019-01-18T09:05:23.118Z,98662.00
2019-01-18T09:07:50.557Z,98662.00
2019-01-18T09:10:22.117Z,98667.00
2019-01-18T09:12:49.387Z,98672.00
2019-01-18T09:15:16.630Z,98663.00
2019-01-18T09:17:43.997Z,98684.00
2019-01-18T09:20:27.298Z,98682.00
2019-01-18T09:22:54.816Z,98689.00
2019-01-18T09:25:22.476Z,98701.00
2019-01-18T09:27:49.890Z,98707.00
2019-01-18T09:30:26.797Z,98710.00
2019-01-18T09:32:54.467Z,98721.00
2019-01-18T09:35:24.128Z,98722.00
2019-01-18T09:37:52.038Z,98729.00
2019-01-18T09:40:23.537Z,98723.00
2019-01-18T09:42:51.037Z,98721.00
2019-01-18T09:45:18.509Z,98724.00
2019-01-18T09:47:46.508Z,98725.00
2019-01-18T09:50:22.039Z,98718.00
2019-01-18T09:52:49.539Z,98719.00
2019-01-18T09:55:16.947Z,98725.00
2019-01-18T09:57:44.478Z,98722.00
2019-01-18T10:00:34.238Z,98727.00
2019-01-18T10:03:03.430Z,98716.00
2019-01-18T10:05:30.907Z,98719.00
2019-01-18T10:07:58.288Z,98717.00
2019-01-18T10:10:25.797Z,98717.00
2019-01-18T10:12:53.348Z,98714.00
2019-01-18T10:15:30.547Z,98711.00
2019-01-18T10:18:00.719Z,98712.00
2019-01-18T10:20:26.979Z,98711.00
2019-01-18T10:22:54.567Z,98715.00
2019-01-18T10:25:21.947Z,98712.00
2019-01-18T10:27:49.308Z,98713.00
2019-01-18T10:30:25.997Z,98713.00
2019-01-18T10:32:53.471Z,98720.00
2019-01-18T10:35:22.757Z,98716.00
2019-01-18T10:37:50.447Z,98726.00
2019-01-18T10:40:17.979Z,98712.00
2019-01-18T10:42:47.366Z,98711.00
2019-01-18T10:45:16.538Z,98725.00
2019-01-18T10:47:43.927Z,98714.00
2019-01-18T10:50:20.917Z,98717.00
2019-01-18T10:52:48.088Z,98711.00
2019-01-18T10:55:16.021Z,98718.00
2019-01-18T10:57:43.610Z,98722.00
2019-01-18T11:00:27.190Z,98718.00
2019-01-18T11:02:54.787Z,98723.00
2019-01-18T11:05:23.347Z,98717.00
2019-01-18T11:07:50.758Z,98733.00
2019-01-18T11:10:18.160Z,98734.00
2019-01-18T11:12:46.040Z,98734.00
2019-01-18T11:15:22.877Z,98721.00
2019-01-18T11:17:50.268Z,98736.00
2019-01-18T11:20:45.571Z,98733.00
2019-01-18T11:23:13.087Z,98735.00
2019-01-18T11:25:40.467Z,98727.00
2019-01-18T11:28:07.767Z,98730.00
2019-01-18T11:30:35.438Z,98730.00
2019-01-18T11:33:03.377Z,98739.00
2019-01-18T11:35:30.960Z,98738.00
2019-01-18T11:37:58.486Z,98739.00
2019-01-18T11:40:26.020Z,98738.00
2019-01-18T11:42:53.404Z,98738.00
2019-01-18T11:45:20.968Z,98746.00
2019-01-18T11:47:48.707Z,98747.00
2019-01-18T11:50:22.528Z,98746.00
2019-01-18T11:52:50.038Z,98746.00
2019-01-18T11:55:17.841Z,98747.00
2019-01-18T11:57:45.537Z,98758.00
2019-01-18T12:00:20.998Z,98759.00
2019-01-18T12:02:48.685Z,98754.00
2019-01-18T12:05:16.291Z,98752.00
2019-01-18T12:07:43.757Z,98759.00
2019-01-18T12:10:30.767Z,98758.00
2019-01-18T12:12:58.818Z,98760.00
2019-01-18T12:15:26.538Z,98756.00
2019-01-18T12:17:53.919Z,98760.00
2019-01-18T12:20:29.239Z,98756.00
2019-01-18T12:22:56.777Z,98757.00
2019-01-18T12:25:24.197Z,98757.00
2019-01-18T12:27:52.018Z,98762.00
2019-01-18T12:30:28.693Z,98760.00
2019-01-18T12:32:56.327Z,98771.00
2019-01-18T12:35:23.709Z,98776.00
2019-01-18T12:37:50.867Z,98792.00
2019-01-18T12:40:18.458Z,98806.00
2019-01-18T12:42:45.827Z,98802.00
2019-01-18T12:45:19.238Z,98803.00
2019-01-18T12:47:46.477Z,98803.00
2019-01-18T12:50:19.367Z,98803.00
2019-01-18T12:52:46.908Z,98801.00
2019-01-18T12:55:14.548Z,98817.00
2019-01-18T12:57:41.939Z,98809.00
2019-01-18T13:00:14.778Z,98801.00
2019-01-18T13:02:42.278Z,98796.00
2019-01-18T13:05:14.938Z,98810.00
2019-01-18T13:07:42.723Z,98808.00
2019-01-18T13:10:12.114Z,98803.00
2019-01-18T13:12:39.958Z,98813.00
2019-01-18T13:15:15.827Z,98807.00
2019-01-18T13:17:43.437Z,98805.00
2019-01-18T13:20:12.639Z,98802.00
2019-01-18T13:22:41.218Z,98804.00
2019-01-18T13:25:15.790Z,98814.00
2019-01-18T13:27:43.747Z,98811.00
2019-01-18T13:30:15.331Z,98814.00
2019-01-18T13:32:43.210Z,98809.00
2019-01-18T13:35:10.779Z,98814.00
2019-01-18T13:37:38.338Z,98820.00
2019-01-18T13:40:19.960Z,98813.00
2019-01-18T13:42:47.498Z,98821.00
2019-01-18T13:45:14.863Z,98825.00
2019-01-18T13:47:44.101Z,98822.00
2019-01-18T13:50:18.460Z,98834.00
2019-01-18T13:52:48.637Z,98838.00
2019-01-18T13:55:29.008Z,98834.00
2019-01-18T13:57:56.367Z,98843.00
2019-01-18T14:00:23.989Z,98837.00
2019-01-18T14:02:51.727Z,98828.00
2019-01-18T14:05:19.290Z,98825.00
2019-01-18T14:07:47.197Z,98829.00
2019-01-18T14:10:25.118Z,98832.00
2019-01-18T14:12:53.047Z,98823.00
2019-01-18T14:15:22.668Z,98830.00
2019-01-18T14:17:50.177Z,98825.00
2019-01-18T14:20:26.797Z,98829.00
2019-01-18T14:22:54.759Z,98827.00
2019-01-18T14:25:22.958Z,98830.00
2019-01-18T14:27:50.357Z,98828.00
2019-01-18T14:30:26.333Z,98832.00
2019-01-18T14:32:55.651Z,98830.00
2019-01-18T14:35:24.628Z,98835.00
2019-01-18T14:37:52.438Z,98840.00
2019-01-18T14:40:20.647Z,98828.00
2019-01-18T14:42:51.008Z,98840.00
2019-01-18T14:45:32.921Z,98835.00
2019-01-18T14:48:00.681Z,98846.00
2019-01-18T14:50:28.478Z,98840.00
2019-01-18T14:52:56.117Z,98837.00
2019-01-18T14:55:23.731Z,98838.00
2019-01-18T14:57:51.677Z,98846.00
2019-01-18T15:00:23.617Z,98840.00
2019-01-18T15:02:51.408Z,98847.00
2019-01-18T15:05:19.229Z,98847.00
2019-01-18T15:07:46.821Z,98849.00
2019-01-18T15:10:22.022Z,98852.00
2019-01-18T15:13:00.076Z,98854.00
2019-01-18T15:15:27.758Z,98853.00
2019-01-18T15:17:55.413Z,98847.00
2019-01-18T15:20:29.017Z,98859.00
2019-01-18T15:22:57.430Z,98859.00
2019-01-18T15:25:24.799Z,98857.00
2019-01-18T15:27:52.391Z,98869.00
2019-01-18T15:30:28.847Z,98855.00
2019-01-18T15:32:56.192Z,98854.00
2019-01-18T15:35:30.345Z,98863.00
2019-01-18T15:37:58.725Z,98862.00
2019-01-18T15:40:31.438Z,98867.00
2019-01-18T15:43:00.511Z,98879.00
2019-01-18T15:45:28.338Z,98871.00
2019-01-18T15:47:55.846Z,98869.00
2019-01-18T15:50:30.500Z,98869.00
2019-01-18T15:52:58.256Z,98870.00
2019-01-18T15:55:26.687Z,98874.00
2019-01-18T15:57:54.998Z,98881.00
2019-01-18T16:00:26.379Z,98878.00
2019-01-18T16:02:54.670Z,98879.00
2019-01-18T16:05:24.705Z,98883.00
2019-01-18T16:07:52.690Z,98880.00
2019-01-18T16:10:20.179Z,98888.00
2019-01-18T16:12:47.897Z,98880.00
2019-01-18T16:15:23.407Z,98889.00
2019-01-18T16:17:50.808Z,98894.00
2019-01-18T16:20:21.639Z,98891.00
2019-01-18T16:22:50.146Z,98872.00
2019-01-18T16:25:22.605Z,98886.00
2019-01-18T16:27:50.147Z,98881.00
2019-01-18T16:30:21.178Z,98875.00
2019-01-18T16:32:49.039Z,98886.00
2019-01-18T16:35:18.298Z,98884.00
2019-01-18T16:37:46.207Z,98895.00
2019-01-18T16:40:30.900Z,98892.00
2019-01-18T16:43:27.986Z,98890.00
2019-01-18T16:45:55.628Z,98883.00
2019-01-18T16:48:22.968Z,98886.00
2019-01-18T16:50:50.370Z,98888.00
2019-01-18T16:53:18.167Z,98874.00
2019-01-18T16:55:46.098Z,98891.00
2019-01-18T16:58:13.740Z,98897.00
2019-01-18T17:00:49.057Z,98906.00
2019-01-18T17:03:16.357Z,98903.00
2019-01-18T17:05:43.672Z,98907.00
2019-01-18T17:08:11.408Z,98901.00
2019-01-18T17:10:38.887Z,98906.00
2019-01-18T17:13:06.328Z,98908.00
2019-01-18T17:15:34.136Z,98912.00
2019-01-18T17:18:01.737Z,98918.00
2019-01-18T17:20:37.208Z,98904.00
2019-01-18T17:23:04.746Z,98918.00
2019-01-18T17:25:32.477Z,98920.00
2019-01-18T17:27:59.848Z,98928.00
2019-01-18T17:30:27.247Z,98926.00
2019-01-18T17:32:54.549Z,98928.00
2019-01-18T17:35:36.067Z,98932.00
2019-01-18T17:38:17.587Z,98930.00
2019-01-18T17:41:02.286Z,98935.00
2019-01-18T17:43:55.907Z,98932.00
2019-01-18T17:46:37.269Z,98926.00
2019-01-18T17:49:16.535Z,98937.00
2019-01-18T17:52:28.478Z,98937.00
2019-01-18T17:55:04.137Z,98939.00
2019-01-18T17:58:04.520Z,98933.00
2019-01-18T18:01:02.659Z,98938.00
2019-01-18T18:03:59.508Z,98946.00
2019-01-18T18:07:13.188Z,98952.00
2019-01-18T18:10:00.761Z,98959.00
2019-01-18T18:12:59.839Z,98947.00
2019-01-18T18:15:56.479Z,98964.00
2019-01-18T18:19:09.549Z,98957.00
2019-01-18T18:22:13.628Z,98964.00
2019-01-18T18:24:52.797Z,98961.00
2019-01-18T18:27:40.168Z,98962.00
2019-01-18T18:30:28.189Z,98954.00
2019-01-18T18:33:25.870Z,98956.00
2019-01-18T18:36:07.437Z,98963.00
2019-01-18T18:39:08.628Z,98963.00
2019-01-18T18:41:56.157Z,98962.00
2019-01-18T18:45:01.704Z,98954.00
2019-01-18T18:47:43.469Z,98949.00
2019-01-18T18:50:37.028Z,98960.00
2019-01-18T18:53:27.349Z,98952.00
2019-01-18T18:56:37.477Z,98948.00
2019-01-18T18:59:43.360Z,98961.00
2019-01-18T19:02:27.830Z,98958.00
2019-01-18T19:05:06.398Z,98960.00
2019-01-18T19:07:50.963Z,98962.00
2019-01-18T19:10:55.697Z,98968.00
2019-01-18T19:13:52.607Z,98970.00
2019-01-18T19:16:46.338Z,98965.00
2019-01-18T19:19:59.927Z,98967.00
2019-01-18T19:22:44.413Z,98971.00
2019-01-18T19:25:32.022Z,98972.00
2019-01-18T19:28:16.826Z,98977.00
2019-01-18T19:31:07.360Z,98975.00
2019-01-18T19:34:04.554Z,98972.00
2019-01-18T19:36:36.078Z,98973.00
2019-01-18T19:39:26.328Z,98972.00
2019-01-18T19:42:14.337Z,98971.00
2019-01-18T19:45:10.878Z,98974.00
2019-01-18T19:47:43.597Z,98976.00
2019-01-18T19:50:34.537Z,98977.00
2019-01-18T19:53:21.958Z,98968.00
2019-01-18T19:56:03.269Z,98966.00
2019-01-18T19:58:59.777Z,98972.00
2019-01-18T20:01:38.159Z,98979.00
2019-01-18T20:04:13.767Z,98990.00
2019-01-18T20:06:55.638Z,98984.00
2019-01-18T20:09:46.737Z,98980.00
2019-01-18T20:12:28.227Z,98978.00
2019-01-18T20:15:03.640Z,98986.00
2019-01-18T20:17:59.248Z,98979.00
2019-01-18T20:20:55.249Z,98984.00
2019-01-18T20:23:53.818Z,98991.00
2019-01-18T20:26:42.759Z,98990.00
2019-01-18T20:29:44.627Z,98999.00
2019-01-18T20:32:38.419Z,99001.00
2019-01-18T20:35:38.627Z,99007.00
2019-01-18T20:38:28.119Z,99009.00
2019-01-18T20:41:21.649Z,98998.00
2019-01-18T20:44:23.197Z,99006.00
2019-01-18T20:47:19.957Z,98999.00
2019-01-18T20:50:20.171Z,98996.00
2019-01-18T20:53:04.425Z,99004.00
2019-01-18T20:55:54.369Z,98996.00
2019-01-18T20:58:52.240Z,98998.00
2019-01-18T21:01:44.808Z,98998.00
2019-01-18T21:04:33.305Z,98996.00
2019-01-18T21:07:33.169Z,99001.00
2019-01-18T21:10:30.206Z,98992.00
2019-01-18T21:13:06.053Z,98996.00
2019-01-18T21:15:48.298Z,98999.00
2019-01-18T21:18:26.479Z,98997.00
2019-01-18T21:21:20.307Z,98995.00
2019-01-18T21:23:58.607Z,98995.00
2019-01-18T21:26:37.328Z,98995.00
2019-01-18T21:29:15.912Z,98998.00
2019-01-18T21:32:23.127Z,98993.00
2019-01-18T21:35:10.777Z,98988.00
2019-01-18T21:37:51.898Z,99003.00
2019-01-18T21:40:48.563Z,99001.00
2019-01-18T21:43:24.037Z,98993.00
2019-01-18T21:45:59.400Z,98993.00
2019-01-18T21:48:38.117Z,98991.00
2019-01-18T21:51:20.111Z,98999.00
2019-01-18T21:54:30.327Z,98986.00
2019-01-18T21:57:22.044Z,98984.00
2019-01-18T22:00:04.047Z,98990.00
2019-01-18T22:02:51.787Z,98995.00
2019-01-18T22:05:30.228Z,98992.00
2019-01-18T22:08:20.918Z,98992.00
2019-01-18T22:10:56.368Z,98986.00
2019-01-18T22:14:05.767Z,98991.00
2019-01-18T22:17:07.406Z,99000.00
2019-01-18T22:20:08.998Z,98987.00
2019-01-18T22:23:02.960Z,98996.00
2019-01-18T22:25:38.438Z,98997.00
2019-01-18T22:28:13.668Z,98997.00
2019-01-18T22:31:10.476Z,98993.00
2019-01-18T22:33:55.288Z,99000.00
2019-01-18T22:36:42.938Z,98999.00
2019-01-18T22:39:40.431Z,98987.00
2019-01-18T22:42:40.558Z,98986.00
2019-01-18T22:45:43.806Z,98986.00
2019-01-18T22:48:19.717Z,98978.00
2019-01-18T22:51:24.306Z,98980.00
2019-01-18T22:54:11.508Z,98984.00
2019-01-18T22:57:08.427Z,98985.00
2019-01-18T22:59:54.916Z,98979.00
2019-01-18T23:02:39.378Z,98988.00
2019-01-18T23:05:45.839Z,98988.00
2019-01-18T23:08:45.727Z,98987.00
2019-01-18T23:11:34.047Z,98985.00
2019-01-18T23:14:35.457Z,98984.00
2019-01-18T23:17:23.377Z,98976.00
2019-01-18T23:20:18.347Z,98975.00
2019-01-18T23:23:10.950Z,98967.00
2019-01-18T23:25:46.397Z,98963.00
2019-01-18T23:28:40.467Z,98961.00
2019-01-18T23:31:13.157Z,98959.00
2019-01-18T23:33:45.978Z,98966.00
2019-01-18T23:36:31.309Z,98951.00
2019-01-18T23:39:23.837Z,98955.00
2019-01-18T23:42:11.668Z,98948.00
2019-01-18T23:45:26.831Z,98945.00
2019-01-18T23:48:26.520Z,98939.00
2019-01-18T23:51:20.688Z,98935.00
2019-01-18T23:54:11.817Z,98936.00
2019-01-18T23:56:56.447Z,98924.00
2019-01-18T23:59:37.997Z,98926.00
